Ana Sayfa
METAR-TAF:

METAR-TAF

Havaalanları :

Baf Uluslararası Havalimanı

Baf, Kıbrıs

Enlem: 34-43N, Boylam: 032-29E, yükseklik: 11 m

Güncel hava durumu gözlemi

Rapor saat 15:30 UTC de 21 dakika önce yapıldı.
Rüzgar kuzeybatıdan 15 kt
Sıcaklık 17°C
Nem 36%
Basınç 1014 hPa
Görüş mesafesi 10 km veya daha fazla
2000 ft yükseklikte az bulutlu

METAR: LCPH 211530Z 31015KT 9999 FEW020 17/02 Q1014

Saat: 18:51 (15:51 UTC)

Tahmin

Rapor saat 11:30 UTC de 4 saat ve 21 dakika önce yapıldı.
Ayın 21'si saat 12 UTC'den ayın 22'si saat 12 UTC'ye kadar geçerli Tahmin
Rüzgar kuzeybatıdan 16 kt
Görüş mesafesi 10 km veya daha fazla
3000 ft yükseklikte az bulutlu

TAF: LCPH 211130Z 2112/2212 32016KT 9999 FEW030

4.000'den fazla havaalanı için hava durumu gözlemleri ve tahminleri (METAR ve TAF raporları).

Kullanılabilir istasyonlar harita üzerinde sarı ve kırmızı noktalarla gösterilir.

İstasyonun adını görmek için fareyi noktanın üzerinde gezdirin.

Sonrasında hava gözlem ve tahminlerini görmek için tıklayın.

Haritayı değiştirmek için: yaklaştırmak için siyah artı işaretli yeşil düğmeye ve uzaklaştırmak için de eksi işaretli düğmeye hızla tıklayın; bitişik haritalar için yeşil okları kullanın.


METAR-TAF: